Terminal Aerodrome Forecast
Issued by NWS Bismarck, ND

Home | Current Version | Previous Version | Graphics & Text | Print | Product List | Glossary On
Versions: 1 2 3 4 5 6 7 8 9 10 11 12 13 14 15 16 17 18 19 20 21 22
859
FTUS43 KBIS 230215 AAB
TAFBIS
TAF AMD
KBIS 230215Z 2302/2324 13010KT P6SM SCT200 WS020/18035KT
     FM230600 12005KT P6SM SCT200
     FM231400 00000KT P6SM VCSH BKN090
     FM232000 01004KT P6SM -RA BKN050=

USA.gov is the U.S. government's official web portal to all federal, state and local government web resources and services.